Flag for India

Past Weather in 20°35'37"N, 78°57'46"E, India — Yesterday and Last 2 Weeks

Currently: 72 °F. Haze. (Weather station: Nagpur Sonegaon, India). See more current weather

Past Weather in 20°35'37"N, 78°57'46"E — Graph

°F

20°35'37"N, 78°57'46"E Temperature Yesterday

Maximum temperature yesterday: 88 °F (at 3:00 pm)
Minimum temperature yesterday: 61 °F (at 5:30 am)
Average temperature yesterday: 74 °F

High & Low Weather Summary for the Past Weeks

 TemperatureHumidityPressure
High90 °F (Jan 24, 3:30 pm)83% (Jan 13, 6:30 am)30.07 "Hg (Jan 13, 6:30 am)
Low52 °F (Jan 22, 6:00 am)17% (Jan 21, 1:00 pm)29.83 "Hg (Jan 16, 3:00 pm)
Average73 °F47%29.96 "Hg
* Reported Jan 12 10:30 pm — Jan 27 10:30 pm, 20°35'37"N, 78°57'46"E. Weather by CustomWeather, © 2021

Note: Actual official high and low records may vary slightly from our data, if they occured in-between our weather recording intervals... More about our weather records

20°35'37"N, 78°57'46"E Weather History for the Previous 24 Hours

Scroll right to see more
 ConditionsComfort  
Time TempWeatherWind HumidityBarometerVisibility
10:30 pm
Wed, Jan 27
72 °FHaze.3 mph57%30.01 "Hg1 mi
10:00 pm72 °FHaze.3 mph61%30.01 "Hg1 mi
9:30 pm72 °FHaze.2 mph61%29.98 "Hg1 mi
9:00 pm72 °FHaze.2 mph61%29.98 "Hg1 mi
8:30 pm72 °FHaze.2 mph61%29.98 "Hg1 mi
8:00 pm73 °FHaze.2 mph61%29.98 "Hg1 mi
7:30 pm73 °FHaze.2 mph57%29.95 "Hg1 mi
7:00 pm73 °FHaze.3 mph57%29.95 "Hg1 mi
6:30 pm75 °FHaze.3 mph57%29.95 "Hg1 mi
6:00 pm77 °FHaze.No wind54%29.92 "Hg1 mi
5:30 pm79 °FHaze.2 mph48%29.92 "Hg1 mi
5:00 pm81 °FHaze.2 mph45%29.92 "Hg1 mi
4:30 pm82 °FHaze.2 mph42%29.92 "Hg1 mi
4:00 pm82 °FHaze.2 mph42%29.92 "Hg2 mi
3:30 pm82 °FHaze.No wind40%29.92 "Hg2 mi
3:00 pm82 °FHaze.2 mph42%29.95 "Hg2 mi
2:30 pm82 °FHaze.2 mph42%29.95 "Hg2 mi
2:00 pm81 °FHaze.2 mph42%29.95 "Hg2 mi
1:30 pm79 °FHaze.5 mph42%29.98 "Hg2 mi
1:00 pm79 °FHaze.5 mph39%29.98 "Hg2 mi
12:30 pm79 °FHaze.2 mph39%30.01 "Hg2 mi
12:00 pm77 °FHaze.2 mph42%30.04 "Hg2 mi
11:30 am75 °FHaze.5 mph41%30.04 "Hg2 mi
11:00 am73 °FHaze.2 mph44%30.04 "Hg2 mi
10:30 am73 °FHaze.3 mph41%30.04 "Hg2 mi
10:00 am72 °FHaze.2 mph44%30.04 "Hg2 mi
9:30 am70 °FHaze.2 mph50%30.04 "Hg2 mi
9:00 am68 °FHaze.2 mph53%30.07 "Hg1 mi
8:00 am64 °FHaze.3 mph60%30.04 "Hg1 mi
7:30 am63 °FHaze.2 mph68%30.04 "Hg1 mi
7:00 am63 °FHaze.2 mph64%30.01 "Hg1 mi
6:30 am64 °FHaze.3 mph60%29.98 "Hg1 mi
6:00 am64 °FHaze.2 mph60%29.98 "Hg1 mi
5:30 am64 °FHaze.2 mph64%29.95 "Hg1 mi
4:30 am64 °FHaze.5 mph60%29.95 "Hg1 mi
3:30 am64 °FHaze.5 mph60%29.95 "Hg1 mi
2:30 am66 °FHaze.5 mph56%29.98 "Hg1 mi
1:30 am66 °FHaze.3 mph56%29.98 "Hg1 mi
12:30 am66 °FHaze.6 mph52%29.98 "Hg1 mi
11:30 pm
Tue, Jan 26
68 °FHaze.3 mph49%29.98 "Hg1 mi
Weather by CustomWeather, © 2021

See weather overview